Time;durP1;ratioP1;P1;durP2;ratioP2;P2;SDS_P1;SDS_P2;PMS_P1;PMS_P2;Temp;Humidity;BMP_temperature;BMP_pressure;BME280_temperature;BME280_humidity;BME280_pressure;Samples;Min_cycle;Max_cycle;Signal;HPM_P1;HPM_P2
2023/04/07 00:02:16;;;;;;;15.23;6.43;;;;;;;7.68;100.00;101374.06;5052217;28;20071;-84
2023/04/07 00:04:42;;;;;;;14.23;6.33;;;;;;;7.69;100.00;101365.47;5052659;28;20052;-84
2023/04/07 00:07:07;;;;;;;13.13;5.80;;;;;;;7.66;100.00;101368.03;5052863;28;20017;-84
2023/04/07 00:09:32;;;;;;;14.77;6.43;;;;;;;7.63;100.00;101368.88;5051586;28;20477;-85
2023/04/07 00:12:00;;;;;;;15.50;6.07;;;;;;;7.64;100.00;101367.19;5052950;28;20029;-85
2023/04/07 00:14:25;;;;;;;15.30;6.68;;;;;;;7.57;100.00;101369.72;5052799;28;20032;-84
2023/04/07 00:16:51;;;;;;;16.23;7.00;;;;;;;7.58;100.00;101373.19;5052217;28;20362;-84
2023/04/07 00:19:16;;;;;;;12.83;5.77;;;;;;;7.52;100.00;101367.97;5052450;28;20048;-84
2023/04/07 00:21:41;;;;;;;14.17;6.10;;;;;;;7.56;100.00;101378.31;5052165;28;20025;-84
2023/04/07 00:24:07;;;;;;;14.40;6.60;;;;;;;7.53;100.00;101377.44;5051626;28;20389;-84
2023/04/07 00:26:32;;;;;;;12.73;5.97;;;;;;;7.50;100.00;101374.81;5052722;28;20076;-84
2023/04/07 00:28:58;;;;;;;15.63;7.22;;;;;;;7.48;100.00;101377.41;5052902;28;20041;-84
2023/04/07 00:31:26;;;;;;;18.85;8.63;;;;;;;7.45;100.00;101374.81;5051363;28;20495;-85
2023/04/07 00:33:52;;;;;;;17.45;8.63;;;;;;;7.42;100.00;101377.38;5052492;28;20071;-85
2023/04/07 00:36:20;;;;;;;15.47;7.63;;;;;;;7.41;100.00;101381.66;5052601;28;20025;-85
2023/04/07 00:38:46;;;;;;;15.43;7.20;;;;;;;7.38;100.00;101373.06;5051762;28;20056;-85
2023/04/07 00:41:11;;;;;;;12.67;6.30;;;;;;;7.36;100.00;101367.88;5052924;28;20053;-85
2023/04/07 00:43:36;;;;;;;11.13;5.97;;;;;;;7.38;100.00;101383.38;5052298;28;20075;-84
2023/04/07 00:46:01;;;;;;;10.43;5.63;;;;;;;7.33;100.00;101377.31;5051871;28;20032;-84
2023/04/07 00:48:32;;;;;;;9.03;4.57;;;;;;;7.37;100.00;101384.22;5052036;28;20090;-85
2023/04/07 00:50:58;;;;;;;6.38;3.92;;;;;;;7.38;100.00;101375.63;5052045;28;20216;-85
2023/04/07 00:53:23;;;;;;;8.20;4.20;;;;;;;7.36;100.00;101379.91;5051287;28;20029;-85
2023/04/07 00:55:48;;;;;;;5.67;3.47;;;;;;;7.34;100.00;101371.28;5052719;28;20017;-85
2023/04/07 00:58:14;;;;;;;5.70;3.40;;;;;;;7.34;100.00;101368.72;5051844;28;20048;-85
2023/04/07 01:00:58;;;;;;;7.23;3.83;;;;;;;7.35;100.00;101373.03;5051296;28;20044;-85
2023/04/07 01:03:45;;;;;;;8.25;4.72;;;;;;;7.33;100.00;101375.59;5051911;28;20086;-84
2023/04/07 01:06:14;;;;;;;12.35;5.90;;;;;;;7.31;100.00;101369.56;5051609;28;20025;-84
2023/04/07 01:08:56;;;;;;;11.48;5.85;;;;;;;7.30;100.00;101369.56;5052144;28;20033;-84
2023/04/07 01:11:29;;;;;;;12.80;6.03;;;;;;;7.29;100.00;101367.81;5052034;28;20065;-84
2023/04/07 01:13:59;;;;;;;10.48;5.30;;;;;;;7.23;100.00;101366.91;5051493;28;20057;-84
2023/04/07 01:16:38;;;;;;;10.80;5.25;;;;;;;7.26;100.00;101373.84;5052066;28;20025;-84
2023/04/07 01:19:10;;;;;;;11.05;5.40;;;;;;;7.25;100.00;101380.72;5051723;28;20497;-84
2023/04/07 01:21:36;;;;;;;10.32;4.90;;;;;;;7.24;100.00;101378.13;5050863;28;20381;-84
2023/04/07 01:24:31;;;;;;;11.82;5.88;;;;;;;7.22;100.00;101380.69;5051466;28;20139;-84
2023/04/07 01:27:12;;;;;;;8.90;4.82;;;;;;;7.20;100.00;101382.41;5048893;28;20129;-84
2023/04/07 01:29:46;;;;;;;8.95;4.90;;;;;;;7.19;100.00;101383.25;5054814;28;20033;-84
2023/04/07 01:32:13;;;;;;;11.15;5.28;;;;;;;7.19;100.00;101380.69;5055860;28;20043;-85
2023/04/07 01:34:40;;;;;;;12.60;5.18;;;;;;;7.17;100.00;101384.97;5054641;28;20544;-84
2023/04/07 01:37:06;;;;;;;8.07;4.47;;;;;;;7.18;100.00;101389.28;5055403;28;20160;-84
2023/04/07 01:39:33;;;;;;;8.77;4.53;;;;;;;7.17;100.00;101384.97;5055631;28;20029;-84
2023/04/07 01:42:03;;;;;;;8.70;4.28;;;;;;;7.14;100.00;101382.34;5054865;28;20042;-84
2023/04/07 01:44:31;;;;;;;7.38;4.32;;;;;;;7.14;100.00;101382.34;5064202;22;20128;-84
2023/04/07 01:46:58;;;;;;;10.07;5.03;;;;;;;7.10;100.00;101383.16;5075408;28;20039;-84
2023/04/07 01:49:24;;;;;;;8.13;4.47;;;;;;;7.11;100.00;101388.34;5061588;28;20040;-84
2023/04/07 01:51:50;;;;;;;9.45;4.57;;;;;;;7.08;100.00;101398.66;5055210;28;20025;-84
2023/04/07 01:54:16;;;;;;;9.90;4.90;;;;;;;7.06;100.00;101397.75;5055533;28;20024;-84
2023/04/07 01:56:43;;;;;;;10.40;4.80;;;;;;;7.00;100.00;101397.72;5054471;28;20052;-84
2023/04/07 01:59:09;;;;;;;;;;;;;;;7.05;100.00;101405.50;5056497;28;20400;-84
2023/04/07 02:01:34;;;;;;;6.20;4.10;;;;;;;7.02;100.00;101413.22;5054932;28;20003;-84
2023/04/07 02:04:21;;;;;;;6.88;3.67;;;;;;;7.03;100.00;101421.00;5054635;28;20408;-84
2023/04/07 02:07:09;;;;;;;5.78;3.53;;;;;;;7.01;100.00;101414.94;5052907;28;20143;-85
2023/04/07 02:09:38;;;;;;;4.43;3.00;;;;;;;7.02;100.00;101419.25;5053514;28;20033;-84
2023/04/07 02:12:07;;;;;;;3.47;2.70;;;;;;;7.02;100.00;101414.09;5055019;28;20082;-85
2023/04/07 02:14:32;;;;;;;4.88;2.90;;;;;;;7.01;100.00;101420.09;5054518;28;20461;-84
2023/04/07 02:17:00;;;;;;;4.73;2.80;;;;;;;7.03;100.00;101417.53;5055854;28;20032;-84
2023/04/07 02:19:26;;;;;;;4.20;2.60;;;;;;;7.03;100.00;101417.53;5074211;28;20034;-85
2023/04/07 02:21:55;;;;;;;2.53;2.30;;;;;;;7.04;100.00;101420.13;5074663;28;20025;-84
2023/04/07 02:24:22;;;;;;;2.80;2.20;;;;;;;7.05;100.00;101414.09;5073672;28;20465;-84
2023/04/07 02:26:48;;;;;;;2.38;2.17;;;;;;;7.04;100.00;101411.53;5122928;23;20111;-84
2023/04/07 02:29:13;;;;;;;2.23;1.93;;;;;;;7.06;100.00;101418.41;5054695;28;20462;-85
2023/04/07 02:31:39;;;;;;;2.73;2.20;;;;;;;7.06;100.00;101417.56;5053574;28;20056;-85
2023/04/07 02:34:07;;;;;;;2.60;2.20;;;;;;;7.04;100.00;101406.34;5054531;28;20102;-84
2023/04/07 02:36:32;;;;;;;2.65;2.30;;;;;;;7.00;100.00;101404.59;5054018;28;20021;-84
2023/04/07 02:38:57;;;;;;;3.37;2.30;;;;;;;7.03;100.00;101410.66;5052540;28;20029;-84
2023/04/07 02:41:22;;;;;;;2.40;2.10;;;;;;;7.03;100.00;101405.50;5054136;28;20045;-84
2023/04/07 02:43:48;;;;;;;2.67;2.23;;;;;;;6.99;100.00;101403.75;5054569;28;20104;-84
2023/04/07 02:46:19;;;;;;;3.07;2.13;;;;;;;7.02;100.00;101410.63;5053482;28;20047;-84
2023/04/07 02:48:44;;;;;;;2.45;2.20;;;;;;;7.01;100.00;101406.31;5054218;28;20031;-84
2023/04/07 02:51:10;;;;;;;2.33;2.00;;;;;;;7.02;100.00;101406.34;5053291;28;20029;-84
2023/04/07 02:53:35;;;;;;;2.67;2.10;;;;;;;7.03;100.00;101410.66;5053857;28;20108;-84
2023/04/07 02:56:00;;;;;;;2.10;1.90;;;;;;;7.02;100.00;101408.94;5053385;28;20087;-84
2023/04/07 02:58:26;;;;;;;2.47;1.90;;;;;;;7.01;100.00;101404.63;5053170;28;20036;-84
2023/04/07 03:00:51;;;;;;;1.70;1.60;;;;;;;7.02;100.00;101406.34;5053907;28;20492;-85
2023/04/07 03:03:16;;;;;;;1.90;1.63;;;;;;;7.04;100.00;101409.78;5054036;28;20079;-84
2023/04/07 03:05:41;;;;;;;1.73;1.63;;;;;;;7.04;100.00;101406.34;5052756;28;20033;-84
2023/04/07 03:08:07;;;;;;;1.73;1.63;;;;;;;7.07;100.00;101416.72;5053927;28;20052;-84
2023/04/07 03:10:32;;;;;;;2.10;1.90;;;;;;;7.05;100.00;101411.53;5053408;28;20028;-84
2023/04/07 03:12:57;;;;;;;2.60;2.20;;;;;;;7.02;100.00;101408.94;5053228;28;20108;-84
2023/04/07 03:15:23;;;;;;;3.00;2.20;;;;;;;7.04;100.00;101409.78;5053797;28;20025;-84
2023/04/07 03:17:48;;;;;;;5.43;2.53;;;;;;;7.01;100.00;101401.16;5053660;28;20487;-84
2023/04/07 03:20:16;;;;;;;3.67;2.50;;;;;;;7.00;100.00;101405.47;5052920;28;20040;-84
2023/04/07 03:22:41;;;;;;;4.22;2.83;;;;;;;7.02;100.00;101414.09;5053190;28;20469;-84
2023/04/07 03:25:07;;;;;;;3.57;2.77;;;;;;;6.99;100.00;101411.47;5053497;28;20032;-84
2023/04/07 03:27:32;;;;;;;3.43;2.27;;;;;;;6.99;100.00;101408.03;5052072;28;20052;-84
2023/04/07 03:29:58;;;;;;;2.70;2.20;;;;;;;7.00;100.00;101417.50;5053164;28;20032;-85
2023/04/07 03:32:23;;;;;;;2.63;2.10;;;;;;;7.00;100.00;101409.75;5053129;28;20533;-84
2023/04/07 03:34:48;;;;;;;2.07;1.87;;;;;;;6.98;100.00;101408.91;5052666;28;20021;-84
2023/04/07 03:37:13;;;;;;;1.97;1.87;;;;;;;7.03;100.00;101412.38;5052908;28;20032;-84
2023/04/07 03:39:39;;;;;;;2.17;1.80;;;;;;;7.00;100.00;101409.75;5052919;28;20116;-84
2023/04/07 03:42:05;;;;;;;1.73;1.50;;;;;;;6.99;100.00;101410.59;5052692;28;20118;-84
2023/04/07 03:44:31;;;;;;;1.50;1.40;;;;;;;6.99;100.00;101413.19;5052909;28;20151;-84
2023/04/07 03:46:56;;;;;;;2.17;1.70;;;;;;;6.99;100.00;101419.22;5053387;28;20500;-84
2023/04/07 03:49:21;;;;;;;1.60;1.50;;;;;;;6.94;100.00;101414.03;5052003;28;20025;-84
2023/04/07 03:51:47;;;;;;;1.70;1.60;;;;;;;6.99;100.00;101419.22;5052978;28;20032;-84
2023/04/07 03:54:12;;;;;;;1.63;1.53;;;;;;;7.00;100.00;101420.97;5052188;28;20389;-83
2023/04/07 03:56:38;;;;;;;2.93;2.13;;;;;;;6.99;100.00;101423.50;5052307;28;20057;-85
2023/04/07 03:59:03;;;;;;;2.47;2.00;;;;;;;6.96;100.00;101424.34;5052990;28;20465;-84
2023/04/07 04:01:28;;;;;;;3.43;2.10;;;;;;;6.99;100.00;101420.94;5052040;28;20104;-85
2023/04/07 04:03:54;;;;;;;1.90;1.70;;;;;;;6.97;100.00;101415.75;5053116;28;20555;-84
2023/04/07 04:06:19;;;;;;;2.40;1.70;;;;;;;6.97;100.00;101418.34;5052675;28;20029;-85
2023/04/07 04:08:44;;;;;;;5.53;2.90;;;;;;;6.97;100.00;101423.50;5052144;28;20033;-84
2023/04/07 04:11:10;;;;;;;3.93;2.60;;;;;;;6.95;100.00;101426.09;5052533;28;20073;-84
2023/04/07 04:13:35;;;;;;;3.30;2.40;;;;;;;6.93;100.00;101416.56;5052248;28;20021;-85
2023/04/07 04:16:01;;;;;;;5.73;3.23;;;;;;;6.94;100.00;101416.59;5052091;28;20036;-84
2023/04/07 04:18:29;;;;;;;5.88;3.20;;;;;;;6.92;100.00;101418.31;5052635;28;20025;-84
2023/04/07 04:20:55;;;;;;;4.68;3.10;;;;;;;6.91;100.00;101421.72;5052598;28;20476;-84
2023/04/07 04:23:20;;;;;;;5.80;3.23;;;;;;;6.88;100.00;101415.69;5051614;28;20029;-84
2023/04/07 04:25:45;;;;;;;5.50;3.20;;;;;;;6.85;100.00;101423.38;5052706;28;20029;-84
2023/04/07 04:28:11;;;;;;;4.77;3.00;;;;;;;6.82;100.00;101416.50;5052559;28;20405;-85
2023/04/07 04:30:36;;;;;;;6.20;3.13;;;;;;;6.79;100.00;101419.91;5051306;28;20059;-84
2023/04/07 04:33:02;;;;;;;5.07;2.97;;;;;;;6.75;100.00;101415.56;5052885;28;20045;-85
2023/04/07 04:35:27;;;;;;;4.47;2.70;;;;;;;6.76;100.00;101426.72;5052075;28;20025;-85
2023/04/07 04:37:52;;;;;;;3.97;2.40;;;;;;;6.68;100.00;101415.47;5051982;28;20036;-84
2023/04/07 04:40:20;;;;;;;3.53;2.60;;;;;;;6.70;100.00;101421.53;5052505;28;20051;-84
2023/04/07 04:42:45;;;;;;;3.85;2.33;;;;;;;6.63;100.00;101418.91;5052073;28;20032;-84
2023/04/07 04:45:11;;;;;;;3.43;2.40;;;;;;;6.62;100.00;101422.31;5052025;28;20017;-85
2023/04/07 04:47:37;;;;;;;2.77;2.10;;;;;;;6.56;100.00;101426.56;5052019;28;20017;-84
2023/04/07 04:50:05;;;;;;;5.68;2.63;;;;;;;6.60;100.00;101436.03;5052330;28;20025;-85
2023/04/07 04:52:45;;;;;;;3.58;2.47;;;;;;;6.56;100.00;101442.03;5051290;28;20039;-84
2023/04/07 04:55:10;;;;;;;4.20;2.60;;;;;;;6.52;100.00;101435.09;5052417;28;20092;-84
2023/04/07 04:57:35;;;;;;;3.67;2.50;;;;;;;6.54;100.00;101457.47;5051543;28;20025;-84
2023/04/07 05:00:03;;;;;;;4.20;2.60;;;;;;;6.45;100.00;101439.31;5052679;28;20025;-84
2023/04/07 05:02:28;;;;;;;5.80;2.60;;;;;;;6.46;100.00;101447.09;5052904;28;20431;-84
2023/04/07 05:04:53;;;;;;;4.67;2.80;;;;;;;6.46;100.00;101452.25;5055371;28;20020;-84
2023/04/07 05:07:19;;;;;;;4.43;2.70;;;;;;;6.52;100.00;101459.19;5056005;28;20029;-84
2023/04/07 05:09:44;;;;;;;5.17;2.90;;;;;;;6.51;100.00;101460.03;5056060;28;20059;-84
2023/04/07 05:12:09;;;;;;;4.87;2.60;;;;;;;6.54;100.00;101461.78;5055005;28;20087;-84
2023/04/07 05:14:35;;;;;;;4.33;2.50;;;;;;;6.55;100.00;101468.66;5056007;28;20090;-84
2023/04/07 05:17:00;;;;;;;4.33;2.53;;;;;;;6.53;100.00;101458.31;5056094;28;20053;-84
2023/04/07 05:19:28;;;;;;;8.73;3.33;;;;;;;6.56;100.00;101466.09;5055075;28;20025;-84
2023/04/07 05:21:53;;;;;;;7.25;3.50;;;;;;;6.53;100.00;101460.03;5055761;28;20447;-84
2023/04/07 05:24:19;;;;;;;9.30;3.80;;;;;;;6.54;100.00;101464.34;5056083;28;20059;-84
2023/04/07 05:26:44;;;;;;;7.20;3.70;;;;;;;6.54;100.00;101466.94;5055217;28;20045;-84
2023/04/07 05:29:12;;;;;;;5.07;3.20;;;;;;;6.58;100.00;101479.88;5055805;28;20500;-84
2023/04/07 05:31:39;;;;;;;4.57;2.88;;;;;;;6.59;100.00;101475.56;5055086;28;20033;-85
2023/04/07 05:34:04;;;;;;;5.78;3.10;;;;;;;6.61;100.00;101479.91;5054939;28;20096;-84
2023/04/07 05:36:30;;;;;;;4.97;2.83;;;;;;;6.61;100.00;101473.88;5055158;28;20044;-84
2023/04/07 05:39:02;;;;;;;3.83;2.60;;;;;;;6.61;100.00;101472.19;5055600;28;20074;-84
2023/04/07 05:41:30;;;;;;;6.63;3.50;;;;;;;6.59;100.00;101476.44;5054533;28;20025;-84
2023/04/07 05:43:56;;;;;;;7.50;3.42;;;;;;;6.66;100.00;101477.38;5055370;28;20479;-84
2023/04/07 05:46:24;;;;;;;6.47;3.63;;;;;;;6.68;100.00;101479.97;5055265;28;20021;-84
2023/04/07 05:48:49;;;;;;;7.13;3.28;;;;;;;6.68;100.00;101480.84;5054516;28;20040;-87
2023/04/07 05:51:14;;;;;;;5.57;3.30;;;;;;;6.70;100.00;101473.97;5055372;28;20032;-86
2023/04/07 05:53:40;;;;;;;6.67;3.23;;;;;;;6.72;100.00;101487.75;5054858;28;20078;-86
2023/04/07 05:56:06;;;;;;;5.60;2.90;;;;;;;6.73;100.00;101484.34;5054589;28;20481;-84
2023/04/07 05:58:31;;;;;;;7.43;3.37;;;;;;;6.77;100.00;101487.81;5055271;28;20040;-84
2023/04/07 06:01:00;;;;;;;5.50;2.97;;;;;;;6.76;100.00;101483.50;5054329;28;20020;-84
2023/04/07 06:03:25;;;;;;;6.25;3.13;;;;;;;6.76;100.00;101486.94;5054806;28;20024;-84
2023/04/07 06:05:51;;;;;;;6.90;3.13;;;;;;;6.75;100.00;101485.22;5054866;28;20025;-87
2023/04/07 06:08:16;;;;;;;5.13;2.88;;;;;;;6.75;100.00;101479.22;5054529;28;20029;-86
2023/04/07 06:10:43;;;;;;;5.07;2.90;;;;;;;6.83;100.00;101503.38;5054396;28;20037;-85
2023/04/07 06:13:08;;;;;;;6.00;2.80;;;;;;;6.85;100.00;101499.09;5054496;28;20499;-85
2023/04/07 06:15:34;;;;;;;5.30;2.83;;;;;;;6.84;100.00;101496.47;5053836;28;20029;-85
2023/04/07 06:17:59;;;;;;;5.67;2.90;;;;;;;6.88;100.00;101503.41;5054483;28;20025;-86
2023/04/07 06:20:26;;;;;;;4.97;3.00;;;;;;;6.91;100.00;101501.72;5054449;28;20056;-85
2023/04/07 06:22:52;;;;;;;6.13;3.10;;;;;;;6.91;100.00;101506.88;5054211;28;20048;-85
2023/04/07 06:25:17;;;;;;;6.23;3.27;;;;;;;6.94;100.00;101504.34;5054673;28;20150;-85
2023/04/07 06:27:42;;;;;;;5.50;3.20;;;;;;;6.92;100.00;101510.34;5054396;28;20509;-86
2023/04/07 06:30:08;;;;;;;5.03;3.00;;;;;;;6.95;100.00;101515.53;5053903;28;20040;-85
2023/04/07 06:32:34;;;;;;;5.60;2.90;;;;;;;6.99;100.00;101511.25;5053585;28;20028;-85
2023/04/07 06:35:04;;;;;;;4.37;2.70;;;;;;;7.01;100.00;101514.72;5061773;22;20049;-85
2023/04/07 06:37:35;;;;;;;3.70;2.50;;;;;;;7.03;100.00;101513.91;5060871;22;20099;-85
2023/04/07 06:40:01;;;;;;;5.22;3.00;;;;;;;7.04;100.00;101505.28;5054366;28;20044;-85
2023/04/07 06:42:26;;;;;;;4.53;2.83;;;;;;;7.09;100.00;101515.69;5054168;28;20381;-85
2023/04/07 06:44:52;;;;;;;4.55;2.80;;;;;;;7.14;100.00;101526.06;5053740;28;20056;-85
2023/04/07 06:47:17;;;;;;;4.07;2.43;;;;;;;7.13;100.00;101520.00;5054277;28;20036;-85
2023/04/07 06:49:42;;;;;;;4.13;2.60;;;;;;;7.15;100.00;101527.78;5053732;28;20473;-85
2023/04/07 06:52:07;;;;;;;4.27;2.60;;;;;;;7.21;100.00;101539.00;5053481;28;20118;-82
2023/04/07 06:54:33;;;;;;;3.90;2.60;;;;;;;7.24;100.00;101533.88;5054067;28;20040;-84
2023/04/07 06:56:58;;;;;;;4.20;2.50;;;;;;;7.26;100.00;101529.59;5053568;28;20025;-86
2023/04/07 06:59:23;;;;;;;3.53;2.40;;;;;;;7.32;100.00;101533.13;5053357;28;20032;-86
2023/04/07 07:01:49;;;;;;;3.07;2.40;;;;;;;7.37;100.00;101534.00;5054011;28;20029;-85
2023/04/07 07:04:14;;;;;;;3.17;2.33;;;;;;;7.42;100.00;101540.94;5053482;28;20058;-88
2023/04/07 07:06:42;;;;;;;2.67;2.20;;;;;;;7.48;100.00;101547.03;5054123;28;20028;-84
2023/04/07 07:09:08;;;;;;;3.25;2.30;;;;;;;7.53;100.00;101545.34;5053579;28;20422;-84
2023/04/07 07:11:33;;;;;;;5.60;2.80;;;;;;;7.56;100.00;101548.81;5052747;28;20135;-85
2023/04/07 07:13:58;;;;;;;5.77;3.10;;;;;;;7.55;100.00;101541.06;5053569;28;20028;-84
2023/04/07 07:16:24;;;;;;;6.33;3.20;;;;;;;7.57;100.00;101535.03;5053193;28;20110;-84
2023/04/07 07:18:50;;;;;;;5.97;3.30;;;;;;;7.68;100.00;101547.19;5052897;28;20507;-85
2023/04/07 07:21:17;;;;;;;7.10;3.90;;;;;;;7.76;100.00;101542.06;5053604;28;20024;-84
2023/04/07 07:23:42;;;;;;;;;;;;;;;7.79;100.00;101552.44;5054010;28;20424;-84
2023/04/07 07:28:32;;;;;;;14.07;5.35;;;;;;;7.89;100.00;101549.91;5068278;22;20057;-84
2023/04/07 07:31:12;;;;;;;12.70;5.50;;;;;;;7.98;100.00;101554.28;5053250;28;20102;-85
2023/04/07 07:33:50;;;;;;;11.90;4.97;;;;;;;8.02;100.00;101550.88;5052575;28;20028;-84
2023/04/07 07:36:16;;;;;;;10.98;5.03;;;;;;;8.00;100.00;101551.72;5053353;28;20104;-84
2023/04/07 07:38:41;;;;;;;11.80;5.30;;;;;;;8.05;100.00;101555.22;5062583;22;20462;-84
2023/04/07 07:41:07;;;;;;;14.47;5.57;;;;;;;7.93;100.00;101556.00;5072510;28;20123;-84
2023/04/07 07:43:36;;;;;;;11.17;4.90;;;;;;;7.96;100.00;101568.94;5072670;28;20081;-84
2023/04/07 07:46:01;;;;;;;10.38;4.72;;;;;;;7.99;100.00;101568.09;5073318;28;20036;-84
2023/04/07 07:48:27;;;;;;;9.40;4.60;;;;;;;8.06;100.00;101576.75;5072351;28;20389;-84
2023/04/07 07:50:52;;;;;;;10.70;4.60;;;;;;;8.08;100.00;101578.50;5072835;28;20060;-84
2023/04/07 07:53:17;;;;;;;7.90;4.30;;;;;;;8.07;100.00;101569.00;5068089;28;20019;-84
2023/04/07 07:55:44;;;;;;;12.87;5.20;;;;;;;8.03;100.00;101580.19;5056121;28;20017;-84
2023/04/07 07:58:10;;;;;;;;;;;;;;;8.09;100.00;101587.09;5053465;28;20154;-84
2023/04/07 08:00:35;;;;;;;7.40;3.90;;;;;;;8.11;100.00;101580.25;5051931;28;20000;-84
2023/04/07 08:03:00;;;;;;;5.90;3.80;;;;;;;8.17;100.00;101586.31;5052905;28;20024;-84
2023/04/07 08:05:35;;;;;;;7.23;3.33;;;;;;;8.17;100.00;101581.16;5062520;28;20033;-84
2023/04/07 08:08:01;;;;;;;5.65;3.25;;;;;;;8.13;100.00;101578.53;5058336;28;20337;-83
2023/04/07 08:10:30;;;;;;;6.05;3.00;;;;;;;8.21;100.00;101586.34;5053574;28;20021;-83
2023/04/07 08:12:55;;;;;;;4.15;2.75;;;;;;;8.29;100.00;101600.19;5052804;28;20449;-84
2023/04/07 08:15:20;;;;;;;4.10;2.57;;;;;;;8.35;100.00;101600.22;5051871;28;20028;-84
2023/04/07 08:17:46;;;;;;;4.23;2.90;;;;;;;8.39;100.00;101595.94;5052640;28;20025;-84
2023/04/07 08:20:15;;;;;;;5.43;2.80;;;;;;;8.44;100.00;101602.00;5052806;28;20029;-84
2023/04/07 08:22:41;;;;;;;5.55;3.20;;;;;;;8.40;100.00;101603.69;5051952;28;20557;-85
2023/04/07 08:25:07;;;;;;;7.25;3.03;;;;;;;8.44;100.00;101602.88;5227593;22;20063;-85
2023/04/07 08:27:33;;;;;;;5.10;3.10;;;;;;;8.46;100.00;101605.47;5052594;28;20449;-85
2023/04/07 08:30:00;;;;;;;7.25;3.03;;;;;;;8.47;100.00;101608.06;5051854;28;20393;-85
2023/04/07 08:32:40;;;;;;;5.35;3.17;;;;;;;8.42;100.00;101604.59;5052649;28;20119;-85
2023/04/07 08:35:06;;;;;;;4.80;2.97;;;;;;;8.47;100.00;101614.94;5049031;28;20029;-85
2023/04/07 08:37:38;;;;;;;5.80;3.10;;;;;;;8.43;100.00;101608.91;5052519;28;20036;-84
2023/04/07 08:40:05;;;;;;;5.82;3.13;;;;;;;8.41;100.00;101620.06;5056670;28;20110;-85
2023/04/07 08:45:28;;;;;;;6.07;3.22;;;;;;;8.31;100.00;101622.59;5056820;28;20110;-85
2023/04/07 08:48:03;;;;;;;6.28;3.15;;;;;;;8.29;100.00;101615.69;5056261;28;20036;-85
2023/04/07 08:50:30;;;;;;;5.03;2.90;;;;;;;8.38;100.00;101628.69;5055380;28;20040;-84
2023/04/07 08:52:58;;;;;;;;;;;;;;;8.46;99.28;101628.75;5057117;28;20021;-85
2023/04/07 08:55:24;;;;;;;5.07;2.80;;;;;;;8.55;99.99;101630.56;5055832;28;19913;-84
2023/04/07 08:57:50;;;;;;;3.78;2.78;;;;;;;8.68;99.76;101634.06;5055645;28;20183;-85
2023/04/07 09:00:16;;;;;;;3.50;2.60;;;;;;;8.80;99.90;101640.16;5056358;28;20524;-85
2023/04/07 09:02:44;;;;;;;3.13;2.40;;;;;;;8.91;99.61;101637.63;5055770;28;20036;-85
2023/04/07 09:05:10;;;;;;;4.07;2.40;;;;;;;8.97;99.31;101634.22;5055679;28;20107;-85
2023/04/07 09:07:37;;;;;;;3.03;2.33;;;;;;;9.06;98.98;101636.81;5072926;22;20397;-84
2023/04/07 09:10:02;;;;;;;;;;;;;;;9.12;98.95;101631.66;5074538;28;20047;-85
2023/04/07 09:12:29;;;;;;;3.72;2.30;;;;;;;9.11;96.86;101637.72;5061739;28;19917;-85
2023/04/07 09:14:57;;;;;;;4.57;2.47;;;;;;;9.14;97.47;101641.16;5056075;28;20481;-85
2023/04/07 09:17:28;;;;;;;2.40;2.20;;;;;;;9.13;96.57;101640.31;5055864;28;20083;-85
2023/04/07 09:20:00;;;;;;;3.05;2.20;;;;;;;9.12;97.52;101638.56;5055279;28;20075;-85
2023/04/07 09:22:34;;;;;;;6.28;2.58;;;;;;;9.07;95.21;101643.75;5055479;28;20536;-85
2023/04/07 09:25:17;;;;;;;5.15;2.70;;;;;;;8.98;95.94;101648.00;5055391;28;20025;-85
2023/04/07 09:28:03;;;;;;;3.05;2.40;;;;;;;8.93;96.55;101650.56;5055379;28;20397;-85
2023/04/07 09:30:31;;;;;;;2.30;2.10;;;;;;;8.95;97.06;101654.03;5055671;28;20060;-85
2023/04/07 09:32:58;;;;;;;4.22;2.20;;;;;;;8.94;96.29;101650.59;5055125;28;20362;-85
2023/04/07 09:35:27;;;;;;;4.65;2.30;;;;;;;8.91;96.31;101644.53;5055245;28;20457;-85
2023/04/07 09:38:06;;;;;;;3.50;2.20;;;;;;;8.91;96.67;101655.75;5055496;28;20067;-85
2023/04/07 09:40:32;;;;;;;5.45;2.40;;;;;;;8.91;96.46;101647.09;5056922;28;20616;-84
2023/04/07 09:42:58;;;;;;;4.10;2.30;;;;;;;8.90;96.36;101647.97;5073589;28;20048;-85
2023/04/07 09:45:25;;;;;;;6.77;2.40;;;;;;;8.88;95.32;101653.16;5074837;28;20472;-86
2023/04/07 09:47:50;;;;;;;6.65;2.67;;;;;;;8.85;95.75;101644.50;5074591;28;20032;-76
2023/04/07 09:50:34;;;;;;;3.30;2.20;;;;;;;8.87;95.83;101653.16;5075118;28;20031;-84
2023/04/07 09:53:00;;;;;;;4.70;2.50;;;;;;;8.93;95.57;101650.56;5074969;28;20086;-84
2023/04/07 09:55:27;;;;;;;2.92;2.15;;;;;;;9.03;96.04;101654.94;5075221;28;20025;-84
2023/04/07 09:57:59;;;;;;;4.18;2.17;;;;;;;9.10;96.03;101651.53;5075240;28;20028;-84
2023/04/07 10:00:24;;;;;;;2.20;1.90;;;;;;;9.17;96.26;101654.13;5074195;28;20035;-85
2023/04/07 10:02:51;;;;;;;2.83;2.13;;;;;;;9.17;95.27;101661.91;5075116;28;20033;-85
2023/04/07 10:05:19;;;;;;;;;;;;;;;9.10;94.24;101664.47;5075676;28;20150;-84
2023/04/07 10:07:45;;;;;;;7.70;3.00;;;;;;;9.04;94.28;101673.94;5074335;28;19912;-84
2023/04/07 10:10:10;;;;;;;4.90;2.70;;;;;;;8.91;94.13;101671.28;5064659;28;20104;-84
2023/04/07 10:12:37;;;;;;;9.23;2.90;;;;;;;8.82;93.78;101673.84;5054455;28;20108;-84
2023/04/07 10:15:03;;;;;;;6.95;2.58;;;;;;;8.71;94.07;101671.19;5054161;28;20021;-84
2023/04/07 10:17:30;;;;;;;6.35;2.55;;;;;;;8.67;94.60;101676.31;5054569;28;20029;-86
2023/04/07 10:19:57;;;;;;;7.38;2.78;;;;;;;8.58;94.07;101678.00;5055257;28;20396;-82
2023/04/07 10:22:27;;;;;;;8.27;2.47;;;;;;;8.54;94.56;101680.56;5053985;28;20369;-84
2023/04/07 10:24:57;;;;;;;8.15;3.83;;;;;;;8.42;93.73;101679.59;5054586;28;20074;-84
2023/04/07 10:27:35;;;;;;;8.20;3.55;;;;;;;8.45;95.20;101681.34;5063991;22;20036;-84
2023/04/07 10:30:05;;;;;;;8.68;3.25;;;;;;;8.47;94.93;101693.44;5053597;28;20044;-84
2023/04/07 10:32:30;;;;;;;5.43;2.83;;;;;;;8.51;95.49;101686.56;5054090;28;20028;-84
2023/04/07 10:34:57;;;;;;;7.97;2.93;;;;;;;8.61;95.10;101693.53;5054450;28;20536;-84
2023/04/07 10:37:23;;;;;;;6.05;2.50;;;;;;;8.69;95.94;101687.56;5053212;28;20413;-84
2023/04/07 10:39:50;;;;;;;4.95;2.50;;;;;;;8.83;94.91;101700.56;5054523;28;20132;-84
2023/04/07 10:42:37;;;;;;;5.00;2.45;;;;;;;9.01;95.70;101690.31;5053370;28;20111;-84
2023/04/07 10:45:07;;;;;;;3.97;2.35;;;;;;;9.20;95.75;101693.84;5054064;28;20033;-85
2023/04/07 10:47:33;;;;;;;3.53;2.30;;;;;;;9.32;94.73;101684.41;5053922;28;20052;-85
2023/04/07 10:50:21;;;;;;;3.17;2.20;;;;;;;9.44;92.62;101694.81;5053550;28;20076;-85
2023/04/07 10:53:07;;;;;;;4.70;2.58;;;;;;;9.44;92.89;101699.97;5054462;28;20025;-85
2023/04/07 10:55:43;;;;;;;7.03;2.73;;;;;;;9.46;90.95;101697.41;5054202;28;20025;-84
2023/04/07 10:58:30;;;;;;;9.38;2.88;;;;;;;9.46;91.43;101694.81;5053058;28;20023;-84
2023/04/07 11:01:13;;;;;;;7.25;3.30;;;;;;;9.44;91.65;101702.56;5053200;28;20063;-85
2023/04/07 11:03:41;;;;;;;7.32;3.17;;;;;;;9.35;90.89;101699.97;5046141;28;20208;-84
2023/04/07 11:06:11;;;;;;;7.65;3.15;;;;;;;9.32;90.69;101706.00;5044838;28;20033;-84
2023/04/07 11:08:45;;;;;;;5.57;2.60;;;;;;;9.31;92.16;101706.84;5053156;28;20020;-85
2023/04/07 11:11:13;;;;;;;5.15;2.60;;;;;;;9.27;90.69;101705.09;5051784;28;20051;-84
2023/04/07 11:13:42;;;;;;;5.47;2.70;;;;;;;9.30;91.25;101709.41;5053024;28;20078;-84
2023/04/07 11:16:08;;;;;;;5.00;2.70;;;;;;;9.32;91.25;101711.19;5053594;28;20025;-85
2023/04/07 11:18:36;;;;;;;5.93;2.67;;;;;;;9.31;89.90;101712.03;5052015;28;20111;-83
2023/04/07 11:21:02;;;;;;;5.18;2.45;;;;;;;9.36;90.64;101715.50;5052972;28;20082;-87
2023/04/07 11:23:30;;;;;;;3.70;2.30;;;;;;;9.43;89.97;101706.03;5053309;28;20064;-84
2023/04/07 11:26:03;;;;;;;5.30;2.30;;;;;;;9.50;90.49;101707.78;5052755;28;20284;-84
2023/04/07 11:28:29;;;;;;;6.18;2.50;;;;;;;9.62;89.63;101712.13;5052406;28;20056;-85
2023/04/07 11:30:57;;;;;;;7.07;2.58;;;;;;;9.71;88.93;101714.75;5051831;28;20389;-84
2023/04/07 11:33:26;;;;;;;5.13;2.40;;;;;;;9.81;88.65;101709.56;5052438;28;20469;-84
2023/04/07 11:35:57;;;;;;;8.82;2.88;;;;;;;9.85;87.35;101713.91;5053329;28;20029;-84